Time;durP1;ratioP1;P1;durP2;ratioP2;P2;SDS_P1;SDS_P2;PMS_P1;PMS_P2;Temp;Humidity;BMP_temperature;BMP_pressure;BME280_temperature;BME280_humidity;BME280_pressure;Samples;Min_cycle;Max_cycle;Signal;HPM_P1;HPM_P2
2022/04/27 00:00:36;;;;;;;5.95;4.12;;;;;;;13.26;77.06;100302.44;5589395;31;33968;-64
2022/04/27 00:03:39;;;;;;;7.55;3.92;;;;;;;13.22;77.87;100306.47;5575864;31;33627;-64
2022/04/27 00:06:42;;;;;;;6.93;3.65;;;;;;;13.20;77.54;100296.00;5589853;31;34219;-65
2022/04/27 00:09:45;;;;;;;6.12;3.50;;;;;;;13.13;77.69;100296.91;5575834;31;33132;-65
2022/04/27 00:12:48;;;;;;;6.45;3.95;;;;;;;13.18;77.81;100295.34;5589533;31;33901;-64
2022/04/27 00:15:51;;;;;;;6.70;3.92;;;;;;;13.24;77.91;100291.94;5575646;31;33209;-65
2022/04/27 00:18:53;;;;;;;7.37;3.72;;;;;;;13.08;78.89;100292.13;5589440;31;35216;-64
2022/04/27 00:21:56;;;;;;;8.82;3.75;;;;;;;13.02;79.25;100291.03;5589420;31;33903;-64
2022/04/27 00:25:00;;;;;;;7.78;3.95;;;;;;;13.03;79.90;100294.50;5589810;31;34311;-64
2022/04/27 00:28:04;;;;;;;6.65;4.03;;;;;;;12.90;80.59;100291.69;5589299;31;34515;-64
2022/04/27 00:31:07;;;;;;;8.98;4.20;;;;;;;12.86;80.83;100301.06;5589675;31;34059;-64
2022/04/27 00:34:10;;;;;;;6.97;3.83;;;;;;;12.97;81.41;100295.28;5575415;31;33165;-63
2022/04/27 00:37:12;;;;;;;6.65;3.87;;;;;;;12.93;81.97;100291.31;5575174;31;32908;-63
2022/04/27 00:40:15;;;;;;;5.85;3.40;;;;;;;12.98;79.80;100294.25;5589304;31;34189;-63
2022/04/27 00:43:52;;;;;;;5.53;3.30;;;;;;;13.07;80.78;100293.97;5588989;31;33856;-64
2022/04/27 00:46:56;;;;;;;6.12;3.45;;;;;;;13.06;79.26;100300.31;5547077;31;34426;-64
2022/04/27 00:49:59;;;;;;;7.47;3.60;;;;;;;13.02;79.87;100295.56;5589289;31;34355;-64
2022/04/27 00:53:02;;;;;;;5.95;4.15;;;;;;;13.07;80.00;100309.94;5588936;31;34082;-64
2022/04/27 00:56:04;;;;;;;6.45;3.83;;;;;;;13.01;80.64;100324.03;5588959;31;35270;-64
2022/04/27 00:59:08;;;;;;;5.93;3.70;;;;;;;12.93;78.20;100336.56;5588945;31;33854;-64
2022/04/27 01:02:11;;;;;;;6.25;3.42;;;;;;;12.93;79.62;100333.91;5588936;31;34199;-64
2022/04/27 01:05:14;;;;;;;6.55;3.25;;;;;;;12.97;78.84;100330.69;5588798;31;33882;-64
2022/04/27 01:08:20;;;;;;;6.90;3.03;;;;;;;13.02;77.28;100327.50;5588684;31;34624;-64
2022/04/27 01:11:23;;;;;;;5.72;3.00;;;;;;;13.05;77.33;100329.78;5588752;31;34334;-63
2022/04/27 01:14:27;;;;;;;5.90;3.30;;;;;;;13.09;77.11;100336.41;5590742;31;34004;-64
2022/04/27 01:17:30;;;;;;;4.30;2.85;;;;;;;13.15;76.39;100333.03;5577053;31;32539;-63
2022/04/27 01:20:36;;;;;;;6.45;3.00;;;;;;;12.99;77.18;100338.50;5577323;31;33967;-64
2022/04/27 01:23:39;;;;;;;4.95;3.17;;;;;;;12.84;77.69;100333.19;5591079;31;33937;-63
2022/04/27 01:26:42;;;;;;;5.75;3.45;;;;;;;12.80;77.90;100339.06;5577147;31;32979;-64
2022/04/27 01:29:44;;;;;;;4.62;3.08;;;;;;;12.78;78.09;100341.09;5591134;31;35159;-64
2022/04/27 01:32:48;;;;;;;5.82;3.00;;;;;;;12.71;78.06;100341.00;5591105;31;33984;-64
2022/04/27 01:35:52;;;;;;;7.50;3.15;;;;;;;12.80;77.76;100350.53;5590866;31;33875;-64
2022/04/27 01:38:55;;;;;;;5.00;2.97;;;;;;;12.80;78.07;100347.03;5576886;31;32745;-64
2022/04/27 01:41:59;;;;;;;4.32;3.00;;;;;;;12.71;77.59;100350.81;5564113;31;33079;-64
2022/04/27 01:45:02;;;;;;;4.43;3.00;;;;;;;12.74;77.79;100347.78;5590865;31;34052;-64
2022/04/27 01:48:06;;;;;;;8.13;3.17;;;;;;;12.63;78.31;100347.19;5590817;31;33984;-64
2022/04/27 01:51:09;;;;;;;5.12;3.12;;;;;;;12.63;78.27;100349.88;5590713;31;35317;-63
2022/04/27 01:54:15;;;;;;;3.90;2.65;;;;;;;12.64;78.55;100348.87;5590684;31;34508;-64
2022/04/27 01:57:20;;;;;;;5.25;3.03;;;;;;;12.63;78.50;100355.19;5590706;31;34080;-64
2022/04/27 02:00:22;;;;;;;3.53;2.72;;;;;;;12.61;78.69;100361.72;5590660;31;34093;-65
2022/04/27 02:03:27;;;;;;;4.28;2.92;;;;;;;12.58;81.39;100372.72;5591016;31;34721;-65
2022/04/27 02:06:29;;;;;;;6.03;3.50;;;;;;;12.39;85.70;100378.56;5590871;31;34354;-64
2022/04/27 02:09:32;;;;;;;4.62;3.25;;;;;;;12.11;91.55;100379.09;5590473;31;34814;-65
2022/04/27 02:12:35;;;;;;;6.32;3.33;;;;;;;11.80;94.13;100375.66;5590710;31;33920;-65
2022/04/27 02:15:39;;;;;;;5.85;3.97;;;;;;;11.54;99.35;100381.25;5576758;31;33324;-66
2022/04/27 02:18:43;;;;;;;7.37;3.92;;;;;;;11.28;100.00;100386.84;5590546;31;33956;-67
2022/04/27 02:21:48;;;;;;;6.07;3.80;;;;;;;11.21;100.00;100375.28;5590588;31;34713;-67
2022/04/27 02:24:51;;;;;;;5.32;3.65;;;;;;;11.05;100.00;100383.28;5590504;31;34526;-66
2022/04/27 02:27:55;;;;;;;6.18;3.80;;;;;;;11.08;100.00;100372.34;5590806;31;33928;-65
2022/04/27 02:30:58;;;;;;;8.40;4.28;;;;;;;10.95;100.00;100379.97;5586058;31;139713;-66
2022/04/27 02:34:01;;;;;;;7.18;4.28;;;;;;;10.80;100.00;100363.94;5590434;31;34647;-66
2022/04/27 02:37:06;;;;;;;6.20;4.40;;;;;;;10.68;100.00;100365.31;5590381;31;34612;-66
2022/04/27 02:40:10;;;;;;;6.40;4.20;;;;;;;10.65;100.00;100354.22;5590626;31;34775;-66
2022/04/27 02:43:12;;;;;;;6.30;4.28;;;;;;;10.65;100.00;100362.16;5590237;31;34678;-66
2022/04/27 02:46:15;;;;;;;5.30;3.78;;;;;;;10.75;100.00;100360.13;5590363;31;35129;-66
2022/04/27 02:52:40;;;;;;;6.43;4.40;;;;;;;10.50;100.00;100362.03;5590272;31;34637;-65
2022/04/27 02:55:43;;;;;;;6.10;4.40;;;;;;;10.59;100.00;100358.34;5590455;31;34033;-66
2022/04/27 02:58:48;;;;;;;5.82;4.30;;;;;;;10.53;100.00;100364.31;5590593;31;33961;-65
2022/04/27 03:01:51;;;;;;;10.73;4.93;;;;;;;10.45;100.00;100365.19;5590242;31;34106;-66
2022/04/27 03:04:54;;;;;;;7.68;4.45;;;;;;;10.48;100.00;100361.34;5576379;31;32442;-66
2022/04/27 03:07:57;;;;;;;7.53;5.07;;;;;;;10.58;100.00;100363.81;5590371;31;33979;-66
2022/04/27 03:11:00;;;;;;;7.97;4.97;;;;;;;10.63;100.00;100356.19;5590042;31;34608;-66
2022/04/27 03:14:04;;;;;;;7.18;4.82;;;;;;;10.70;100.00;100368.59;5563039;31;32884;-66
2022/04/27 03:17:07;;;;;;;7.95;4.95;;;;;;;10.72;100.00;100363.97;5576775;31;33916;-66
2022/04/27 03:20:10;;;;;;;10.75;5.30;;;;;;;10.68;100.00;100369.78;5590319;31;34651;-66
2022/04/27 03:23:14;;;;;;;7.10;5.35;;;;;;;10.72;100.00;100371.09;5589993;31;32739;-65
2022/04/27 03:26:17;;;;;;;9.32;4.78;;;;;;;10.73;100.00;100375.41;5590019;31;33893;-65
2022/04/27 03:29:20;;;;;;;8.23;4.55;;;;;;;10.69;100.00;100371.44;5575797;31;33378;-66
2022/04/27 03:32:27;;;;;;;8.00;5.35;;;;;;;10.71;100.00;100377.38;5590217;31;35295;-66
2022/04/27 03:35:30;;;;;;;7.60;4.90;;;;;;;10.67;100.00;100373.41;5589561;31;34694;-65
2022/04/27 03:38:33;;;;;;;10.75;5.10;;;;;;;10.62;100.00;100373.09;5589966;31;34693;-66
2022/04/27 03:41:36;;;;;;;8.60;5.20;;;;;;;10.51;100.00;100381.38;5589839;31;34214;-66
2022/04/27 03:44:38;;;;;;;8.85;5.43;;;;;;;10.51;100.00;100384.88;5575960;31;32444;-66
2022/04/27 03:47:43;;;;;;;8.23;5.05;;;;;;;10.44;100.00;100387.38;5590123;31;33958;-66
2022/04/27 03:50:51;;;;;;;7.68;4.87;;;;;;;10.49;100.00;100391.34;5590105;31;33984;-66
2022/04/27 03:53:54;;;;;;;7.32;4.62;;;;;;;10.46;100.00;100390.69;5589568;31;35239;-66
2022/04/27 03:56:58;;;;;;;6.87;4.85;;;;;;;10.58;100.00;100398.31;5575640;31;32689;-66
2022/04/27 04:00:03;;;;;;;7.70;4.90;;;;;;;10.64;100.00;100393.16;5576328;31;34562;-66
2022/04/27 04:03:14;;;;;;;8.27;5.18;;;;;;;10.68;100.00;100393.66;5589762;31;35212;-66
2022/04/27 04:06:24;;;;;;;;;;;;;;;10.75;100.00;100398.09;5575827;31;32512;-66
2022/04/27 04:09:27;;;;;;;7.10;4.37;;;;;;;10.75;100.00;100403.41;5575390;31;34691;-66
2022/04/27 04:12:30;;;;;;;7.32;4.78;;;;;;;10.78;100.00;100410.22;5589816;31;34212;-66
2022/04/27 04:15:37;;;;;;;8.95;5.30;;;;;;;10.80;100.00;100408.22;5575084;31;32759;-65
2022/04/27 04:18:41;;;;;;;7.60;4.75;;;;;;;10.84;100.00;100409.56;5589839;31;34293;-66
2022/04/27 04:21:44;;;;;;;9.55;5.00;;;;;;;10.84;100.00;100407.72;5589559;31;34448;-66
2022/04/27 04:31:31;;;;;;;7.35;4.45;;;;;;;10.77;100.00;100406.75;5589346;31;35166;-65
2022/04/27 04:34:34;;;;;;;6.72;4.30;;;;;;;10.79;100.00;100410.06;5589275;31;34072;-65
2022/04/27 04:37:37;;;;;;;7.90;4.62;;;;;;;10.79;100.00;100418.03;5574969;31;32521;-65
2022/04/27 04:40:40;;;;;;;9.25;4.57;;;;;;;10.77;100.00;100424.47;5575020;31;32588;-65
2022/04/27 04:43:43;;;;;;;8.27;4.78;;;;;;;10.87;100.00;100435.75;5588805;31;34102;-65
2022/04/27 04:46:46;;;;;;;5.72;4.15;;;;;;;10.79;100.00;100439.25;5588436;31;33737;-64
2022/04/27 04:49:50;;;;;;;7.57;4.55;;;;;;;10.80;100.00;100440.87;5588101;31;33986;-65
2022/04/27 04:52:54;;;;;;;7.47;4.80;;;;;;;10.86;100.00;100448.19;5574970;31;32877;-65
2022/04/27 04:55:57;;;;;;;8.15;4.97;;;;;;;11.04;100.00;100444.50;5574539;31;33249;-65
2022/04/27 04:59:05;;;;;;;7.78;4.78;;;;;;;11.03;100.00;100442.88;5574584;31;32450;-65
2022/04/27 05:02:09;;;;;;;10.00;4.65;;;;;;;11.06;100.00;100451.31;5588789;31;34041;-65
2022/04/27 05:05:11;;;;;;;12.82;5.10;;;;;;;11.13;100.00;100454.13;5574972;31;33240;-65
2022/04/27 05:08:15;;;;;;;6.80;4.45;;;;;;;11.23;100.00;100460.09;5574895;31;34298;-65
2022/04/27 05:11:18;;;;;;;7.30;4.75;;;;;;;11.36;100.00;100459.53;5574842;31;33812;-65
2022/04/27 05:14:21;;;;;;;8.23;4.97;;;;;;;11.25;100.00;100461.56;5574652;31;32774;-65
2022/04/27 05:17:24;;;;;;;7.45;4.70;;;;;;;11.25;100.00;100464.22;5574307;31;33151;-65
2022/04/27 05:20:29;;;;;;;11.35;5.05;;;;;;;11.46;100.00;100466.31;5588288;31;34808;-65
2022/04/27 05:23:32;;;;;;;8.07;5.07;;;;;;;11.66;100.00;100469.41;5574468;31;32608;-65
2022/04/27 05:26:35;;;;;;;8.57;5.00;;;;;;;11.52;100.00;100470.91;5574123;31;32665;-65
2022/04/27 05:33:05;;;;;;;9.00;5.07;;;;;;;11.85;98.39;100470.84;5574210;31;32575;-65
2022/04/27 05:36:10;;;;;;;7.35;4.85;;;;;;;12.02;98.32;100461.75;5574202;31;32470;-64
2022/04/27 05:39:21;;;;;;;;;;;;;;;12.28;96.78;100469.41;5588223;31;33973;-65
2022/04/27 05:42:23;;;;;;;8.80;4.68;;;;;;;12.28;96.62;100467.59;5548208;31;35036;-64
2022/04/27 05:45:28;;;;;;;8.15;4.80;;;;;;;12.35;93.60;100473.00;5573567;31;33643;-64
2022/04/27 05:48:31;;;;;;;10.02;5.12;;;;;;;12.50;90.39;100479.22;5587447;31;34008;-65
2022/04/27 05:51:36;;;;;;;7.68;4.95;;;;;;;12.61;90.50;100478.81;5573624;31;32307;-64
2022/04/27 05:54:38;;;;;;;9.35;4.93;;;;;;;12.58;90.95;100481.84;5573294;31;32447;-64
2022/04/27 05:57:42;;;;;;;8.85;5.18;;;;;;;12.50;90.39;100489.88;5587262;31;34087;-64
2022/04/27 06:00:46;;;;;;;8.55;4.68;;;;;;;12.44;90.18;100491.41;5575807;31;34174;-64
2022/04/27 06:03:50;;;;;;;8.15;4.78;;;;;;;12.56;88.90;100499.81;5575857;31;32813;-65
2022/04/27 06:07:00;;;;;;;7.95;4.95;;;;;;;12.45;90.64;100501.03;5590225;31;34661;-65
2022/04/27 06:10:04;;;;;;;8.50;4.75;;;;;;;12.32;90.25;100507.97;5576456;31;32502;-65
2022/04/27 06:13:07;;;;;;;7.25;4.75;;;;;;;12.64;89.10;100508.56;5589497;31;34018;-65
2022/04/27 06:16:11;;;;;;;9.35;4.95;;;;;;;12.40;88.69;100502.56;5589004;31;34120;-65
2022/04/27 06:19:15;;;;;;;7.78;5.28;;;;;;;12.57;89.04;100498.81;5589772;31;34576;-65
2022/04/27 06:22:20;;;;;;;6.78;4.60;;;;;;;12.48;88.97;100499.88;5576123;31;34010;-64
2022/04/27 06:25:25;;;;;;;8.10;5.15;;;;;;;12.43;89.70;100500.41;5576126;31;33090;-65
2022/04/27 06:28:35;;;;;;;9.55;4.80;;;;;;;12.68;90.66;100508.22;5575675;31;33656;-64
2022/04/27 06:31:37;;;;;;;8.40;4.65;;;;;;;12.48;90.26;100513.19;5590124;31;35206;-64
2022/04/27 06:34:40;;;;;;;9.50;4.70;;;;;;;12.62;85.09;100505.28;5576220;31;32707;-66
2022/04/27 06:37:43;;;;;;;8.55;4.55;;;;;;;12.71;86.75;100513.19;5575898;31;32500;-65
2022/04/27 06:40:46;;;;;;;7.40;4.72;;;;;;;12.59;86.22;100510.94;5575813;31;33859;-65
2022/04/27 06:43:48;;;;;;;7.20;4.65;;;;;;;12.61;86.45;100519.56;5575583;31;32482;-65
2022/04/27 06:46:57;;;;;;;6.78;4.28;;;;;;;12.55;86.73;100514.13;5575620;31;32509;-65
2022/04/27 06:50:16;;;;;;;10.02;5.00;;;;;;;12.84;87.37;100513.41;5577782;31;33794;-65
2022/04/27 06:53:24;;;;;;;6.57;4.35;;;;;;;13.00;85.33;100521.25;5575759;31;32485;-65
2022/04/27 06:56:38;;;;;;;8.02;5.22;;;;;;;12.84;86.51;100516.88;5589689;31;34077;-65
2022/04/27 06:59:41;;;;;;;6.50;4.65;;;;;;;12.86;85.40;100524.72;5589932;31;33978;-65
2022/04/27 07:02:46;;;;;;;9.63;5.25;;;;;;;13.25;84.79;100527.22;5576118;31;32455;-64
2022/04/27 07:05:49;;;;;;;7.25;4.40;;;;;;;13.11;86.05;100531.53;5575820;31;33830;-64
2022/04/27 07:08:51;;;;;;;7.00;4.65;;;;;;;13.26;84.14;100531.56;5576252;31;32538;-65
2022/04/27 07:11:55;;;;;;;7.03;3.97;;;;;;;13.62;80.94;100543.16;5589052;31;33937;-65
2022/04/27 07:15:02;;;;;;;6.93;4.35;;;;;;;13.39;81.82;100537.06;5575798;31;32414;-65
2022/04/27 07:18:05;;;;;;;6.40;4.10;;;;;;;13.97;81.12;100536.25;5589838;31;34797;-64
2022/04/27 07:21:08;;;;;;;6.95;4.10;;;;;;;14.00;79.14;100545.72;5589873;31;34639;-65
2022/04/27 07:24:13;;;;;;;7.12;3.65;;;;;;;14.63;77.39;100547.69;5576246;31;32452;-64
2022/04/27 07:27:16;;;;;;;6.55;3.97;;;;;;;14.88;74.20;100557.00;5589773;31;34588;-65
2022/04/27 07:30:20;;;;;;;5.45;3.75;;;;;;;14.67;74.65;100559.66;5576122;31;32423;-66
2022/04/27 07:33:24;;;;;;;5.80;3.97;;;;;;;15.45;72.70;100567.53;5576143;31;33961;-65
2022/04/27 07:36:26;;;;;;;6.40;4.30;;;;;;;16.44;67.94;100568.09;5576002;31;33927;-66
2022/04/27 07:39:32;;;;;;;5.20;3.72;;;;;;;16.72;66.56;100563.47;5576000;31;32491;-65
2022/04/27 07:42:36;;;;;;;6.90;3.90;;;;;;;16.68;68.07;100580.16;5589789;31;34024;-65
2022/04/27 07:45:39;;;;;;;6.00;3.83;;;;;;;15.88;69.91;100578.12;5575407;31;33542;-66
2022/04/27 07:48:42;;;;;;;5.97;4.05;;;;;;;15.71;71.10;100566.94;5575266;31;32754;-65
2022/04/27 07:51:46;;;;;;;5.05;3.58;;;;;;;15.84;71.90;100574.19;5575485;31;32689;-65
2022/04/27 07:54:51;;;;;;;6.78;3.62;;;;;;;15.17;72.82;100564.88;5566104;31;33808;-65
2022/04/27 07:57:53;;;;;;;4.75;3.42;;;;;;;15.32;73.16;100570.13;5589492;31;34266;-66
2022/04/27 08:00:57;;;;;;;5.47;3.65;;;;;;;15.34;71.82;100567.25;5588796;31;35132;-65
2022/04/27 08:04:00;;;;;;;6.87;4.07;;;;;;;16.00;69.19;100574.72;5588287;31;32472;-65
2022/04/27 08:07:03;;;;;;;5.72;3.58;;;;;;;15.70;70.56;100581.31;5588763;31;33388;-65
2022/04/27 08:10:11;;;;;;;4.85;3.42;;;;;;;15.90;70.37;100578.78;5588425;31;33272;-65
2022/04/27 08:13:15;;;;;;;7.97;4.03;;;;;;;16.77;67.41;100574.41;5575553;31;32989;-65
2022/04/27 08:16:18;;;;;;;6.20;3.65;;;;;;;15.79;70.41;100593.53;5588322;31;32830;-65
2022/04/27 08:19:20;;;;;;;5.80;3.50;;;;;;;15.66;70.29;100590.75;5588438;31;33431;-65
2022/04/27 08:22:23;;;;;;;5.25;3.75;;;;;;;15.49;71.68;100586.72;5587861;31;33923;-66
2022/04/27 08:25:25;;;;;;;7.32;3.90;;;;;;;16.00;69.72;100587.25;5589155;31;34013;-65
2022/04/27 08:28:29;;;;;;;6.25;4.03;;;;;;;15.96;69.46;100588.69;5589217;31;33984;-67
2022/04/27 08:31:32;;;;;;;6.65;4.28;;;;;;;15.26;72.91;100591.44;5575189;31;32735;-65
2022/04/27 08:34:35;;;;;;;6.37;4.15;;;;;;;14.83;75.41;100593.31;5587739;31;33308;-65
2022/04/27 08:37:38;;;;;;;5.70;4.10;;;;;;;14.72;76.50;100599.97;5588150;31;32354;-66
2022/04/27 08:40:44;;;;;;;6.55;3.80;;;;;;;14.79;76.50;100596.37;5588145;31;34027;-65
2022/04/27 08:43:47;;;;;;;5.28;3.53;;;;;;;14.87;75.01;100602.59;5588834;31;34552;-66
2022/04/27 08:46:51;;;;;;;6.75;4.22;;;;;;;14.55;76.02;100607.41;5575321;31;34180;-65
2022/04/27 08:49:55;;;;;;;7.32;4.03;;;;;;;14.52;76.90;100597.09;5588125;31;32816;-65
2022/04/27 08:52:57;;;;;;;6.78;4.22;;;;;;;14.58;76.59;100599.00;5587774;31;32585;-65
2022/04/27 08:56:00;;;;;;;4.85;3.50;;;;;;;14.73;75.85;100596.28;5574879;31;32984;-65
2022/04/27 08:59:03;;;;;;;6.95;4.00;;;;;;;14.69;76.96;100593.19;5574830;31;33364;-65
2022/04/27 09:02:27;;;;;;;5.85;3.87;;;;;;;15.32;73.37;100604.03;5588886;31;34494;-66
2022/04/27 09:05:31;;;;;;;6.57;3.80;;;;;;;14.85;75.13;100591.28;5587647;31;32825;-65
2022/04/27 09:08:43;;;;;;;6.43;4.10;;;;;;;14.78;73.73;100588.53;5588521;31;34039;-65
2022/04/27 09:11:51;;;;;;;9.50;4.05;;;;;;;15.35;70.65;100592.94;5574572;31;32572;-67
2022/04/27 09:15:04;;;;;;;5.43;3.72;;;;;;;15.80;70.47;100589.81;5587682;31;34929;-65
2022/04/27 09:21:29;;;;;;;5.60;4.25;;;;;;;15.59;69.15;100595.22;5587118;31;32881;-65
2022/04/27 09:24:52;;;;;;;6.18;4.12;;;;;;;15.77;69.58;100592.06;5587566;31;33428;-65
2022/04/27 09:27:55;;;;;;;7.10;4.35;;;;;;;16.66;65.83;100585.69;5586834;31;32606;-65
2022/04/27 09:30:59;;;;;;;7.55;4.30;;;;;;;17.64;61.29;100589.50;5586815;31;34012;-65
2022/04/27 09:34:27;;;;;;;5.90;3.58;;;;;;;17.44;62.95;100583.31;5588509;31;33876;-66
2022/04/27 09:37:30;;;;;;;6.05;3.92;;;;;;;18.20;59.79;100584.44;5590441;31;33896;-65
2022/04/27 09:40:43;;;;;;;5.32;3.80;;;;;;;17.35;62.98;100591.56;5590583;31;33970;-64
2022/04/27 09:43:48;;;;;;;4.45;3.33;;;;;;;18.39;58.43;100588.88;5592304;31;33612;-64
2022/04/27 09:46:53;;;;;;;5.72;3.92;;;;;;;18.59;57.13;100581.56;5592696;31;34185;-66
2022/04/27 09:49:56;;;;;;;5.35;4.20;;;;;;;18.54;57.12;100581.38;5590051;31;33316;-65
2022/04/27 09:52:59;;;;;;;7.62;4.15;;;;;;;17.17;60.86;100585.16;5589521;31;33590;-66
2022/04/27 09:56:03;;;;;;;5.87;3.65;;;;;;;16.68;63.90;100583.66;5589227;31;32787;-66
2022/04/27 09:59:09;;;;;;;7.03;3.95;;;;;;;17.15;61.81;100588.03;5589850;31;32616;-65
2022/04/27 10:02:22;;;;;;;6.65;3.83;;;;;;;17.09;62.50;100583.50;5589662;31;32846;-66
2022/04/27 10:05:27;;;;;;;8.23;3.67;;;;;;;16.50;65.45;100588.72;5589913;31;33550;-65
2022/04/27 10:08:32;;;;;;;6.20;4.15;;;;;;;16.23;66.61;100576.25;5589846;31;33113;-65
2022/04/27 10:11:37;;;;;;;5.07;3.90;;;;;;;16.36;67.26;100595.06;5589854;31;32557;-66
2022/04/27 10:14:40;;;;;;;6.25;3.67;;;;;;;16.08;67.21;100590.59;5577004;31;33072;-65
2022/04/27 10:17:43;;;;;;;5.40;3.90;;;;;;;15.99;67.35;100583.75;5589837;31;32300;-65
2022/04/27 10:20:51;;;;;;;5.82;3.75;;;;;;;16.34;66.45;100592.56;5590657;31;34668;-65
2022/04/27 10:23:55;;;;;;;5.95;3.80;;;;;;;15.88;67.15;100586.97;5590274;31;34397;-65
2022/04/27 10:27:33;;;;;;;9.95;4.28;;;;;;;16.02;67.24;100591.38;5590457;31;34241;-65
2022/04/27 10:30:43;;;;;;;6.72;4.10;;;;;;;15.72;69.03;100584.62;5579499;31;32444;-65
2022/04/27 10:33:50;;;;;;;6.28;3.83;;;;;;;16.23;67.12;100589.63;5589349;31;32920;-65
2022/04/27 10:36:57;;;;;;;7.00;3.90;;;;;;;16.40;66.41;100597.13;5589257;31;34001;-65
2022/04/27 10:40:26;;;;;;;6.10;4.10;;;;;;;15.99;68.01;100602.50;5589937;31;35477;-65
2022/04/27 10:43:42;;;;;;;6.12;4.07;;;;;;;15.07;71.24;100604.44;5590151;31;34645;-66
2022/04/27 10:46:44;;;;;;;7.35;4.20;;;;;;;15.37;69.31;100605.12;5588128;31;32633;-65
2022/04/27 10:50:08;;;;;;;6.22;3.97;;;;;;;15.61;69.02;100598.53;5589580;31;33316;-65
2022/04/27 10:53:19;;;;;;;6.25;4.00;;;;;;;15.62;69.54;100605.56;5590181;31;34669;-65
2022/04/27 10:56:37;;;;;;;6.00;3.95;;;;;;;15.50;70.34;100597.19;5588971;31;33229;-65
2022/04/27 10:59:51;;;;;;;7.70;4.55;;;;;;;15.43;71.39;100598.19;5589980;31;34042;-65
2022/04/27 11:03:16;;;;;;;7.60;4.55;;;;;;;14.98;72.34;100596.75;5589345;31;33410;-65
2022/04/27 11:06:19;;;;;;;8.90;4.78;;;;;;;14.90;72.11;100603.06;5589912;31;34570;-65
2022/04/27 11:09:43;;;;;;;9.63;4.80;;;;;;;14.52;73.94;100601.62;5589191;31;32524;-65
2022/04/27 11:12:51;;;;;;;8.02;4.70;;;;;;;14.75;74.37;100592.44;5589359;31;33252;-65
2022/04/27 11:15:53;;;;;;;5.57;4.00;;;;;;;14.92;73.14;100598.34;5589013;31;36681;-66
2022/04/27 11:18:58;;;;;;;7.35;4.00;;;;;;;14.85;73.12;100600.13;5590417;31;34074;-65
2022/04/27 11:22:15;;;;;;;6.87;4.30;;;;;;;14.49;75.08;100601.97;5589828;31;34025;-65
2022/04/27 11:25:23;;;;;;;10.20;4.95;;;;;;;14.68;74.84;100598.69;5588823;31;33010;-66
2022/04/27 11:28:27;;;;;;;8.73;5.07;;;;;;;14.60;76.12;100609.50;5590077;31;34448;-65
2022/04/27 11:31:30;;;;;;;6.75;4.62;;;;;;;14.60;76.78;100615.66;5588970;31;33755;-65
2022/04/27 11:34:34;;;;;;;8.45;4.55;;;;;;;14.39;78.15;100615.63;5589718;31;34581;-65
2022/04/27 11:37:40;;;;;;;6.65;4.75;;;;;;;14.35;78.89;100612.47;5588849;31;32709;-65
2022/04/27 11:40:42;;;;;;;8.90;5.35;;;;;;;14.15;80.66;100614.03;5588988;31;33229;-65
2022/04/27 11:43:50;;;;;;;8.70;5.32;;;;;;;13.89;81.82;100608.38;5588905;31;32450;-66
2022/04/27 11:46:53;;;;;;;7.22;4.95;;;;;;;14.14;81.36;100612.38;5588911;31;32311;-65
2022/04/27 11:50:02;;;;;;;8.50;5.35;;;;;;;13.94;82.24;100603.31;5588913;31;32829;-65
2022/04/27 11:53:11;;;;;;;7.22;4.82;;;;;;;13.92;83.04;100610.66;5590099;31;34632;-65
2022/04/27 11:56:19;;;;;;;9.60;4.93;;;;;;;13.64;86.10;100610.47;5588673;31;32430;-65
2022/04/27 11:59:22;;;;;;;8.50;5.05;;;;;;;13.58;89.02;100616.50;5589829;31;34939;-65
2022/04/27 12:02:26;;;;;;;6.57;4.68;;;;;;;13.56;90.58;100609.69;5588905;31;33596;-64
2022/04/27 12:05:38;;;;;;;7.75;4.97;;;;;;;13.36;94.01;100617.38;5588361;31;32701;-66
2022/04/27 12:08:42;;;;;;;8.10;5.18;;;;;;;13.26;97.44;100614.97;5589435;31;34069;-65
2022/04/27 12:11:45;;;;;;;8.15;4.72;;;;;;;13.31;97.28;100614.44;5588936;31;32588;-66
2022/04/27 12:14:48;;;;;;;13.02;5.40;;;;;;;13.18;97.84;100619.53;5575517;31;32474;-66
2022/04/27 12:17:56;;;;;;;12.25;6.75;;;;;;;12.77;100.00;100617.13;5589407;31;34036;-65
2022/04/27 12:20:59;;;;;;;14.65;8.43;;;;;;;12.73;100.00;100622.97;5588499;31;32656;-65
2022/04/27 12:24:15;;;;;;;15.57;9.75;;;;;;;12.49;100.00;100619.44;5588422;31;33401;-66
2022/04/27 12:27:21;;;;;;;16.92;9.73;;;;;;;12.41;100.00;100618.66;5575413;31;34210;-65
2022/04/27 12:30:24;;;;;;;17.48;10.35;;;;;;;12.24;100.00;100617.91;5589155;31;34840;-65
2022/04/27 12:33:35;;;;;;;16.98;10.25;;;;;;;12.31;100.00;100620.69;5588602;31;34749;-65
2022/04/27 12:40:13;;;;;;;16.92;10.40;;;;;;;12.44;100.00;100619.13;5588109;31;32585;-66
2022/04/27 12:43:16;;;;;;;16.55;10.23;;;;;;;12.31;100.00;100608.22;5588221;31;33206;-66
2022/04/27 12:46:19;;;;;;;16.92;10.15;;;;;;;12.39;100.00;100610.84;5588287;31;34226;-65
2022/04/27 12:49:36;;;;;;;19.10;11.73;;;;;;;12.47;100.00;100612.63;5587704;31;33026;-66
2022/04/27 12:52:39;;;;;;;15.43;11.10;;;;;;;12.52;100.00;100613.78;5588257;31;32412;-66
2022/04/27 12:55:42;;;;;;;18.35;10.88;;;;;;;12.66;100.00;100614.88;5587925;31;32527;-65
2022/04/27 12:59:05;;;;;;;16.98;10.57;;;;;;;12.57;100.00;100614.09;5588612;31;34263;-66
2022/04/27 13:02:08;;;;;;;17.60;10.65;;;;;;;12.46;100.00;100619.78;5589093;31;34824;-66
2022/04/27 13:05:11;;;;;;;18.73;10.75;;;;;;;12.50;100.00;100609.63;5587914;31;32844;-66
2022/04/27 13:08:15;;;;;;;18.17;10.85;;;;;;;12.48;100.00;100622.28;5586618;31;33207;-66
2022/04/27 13:14:39;;;;;;;18.42;11.90;;;;;;;12.29;100.00;100620.88;5587535;31;32779;-65
2022/04/27 13:17:46;;;;;;;17.67;11.10;;;;;;;12.16;100.00;100617.91;5588444;31;34105;-64
2022/04/27 13:20:50;;;;;;;15.98;10.77;;;;;;;12.21;100.00;100615.56;5587331;31;32889;-64
2022/04/27 13:23:52;;;;;;;17.33;10.77;;;;;;;12.05;100.00;100616.47;5587627;31;33306;-65
2022/04/27 13:26:58;;;;;;;15.48;9.68;;;;;;;11.86;100.00;100616.03;5588218;31;34292;-66
2022/04/27 13:30:01;;;;;;;14.38;9.70;;;;;;;11.80;100.00;100614.06;5587180;31;34218;-65
2022/04/27 13:33:04;;;;;;;16.30;10.70;;;;;;;11.52;100.00;100609.06;5588086;31;34859;-67
2022/04/27 13:36:07;;;;;;;16.08;10.30;;;;;;;11.54;100.00;100616.87;5574445;31;32627;-65
2022/04/27 13:39:10;;;;;;;19.40;10.43;;;;;;;11.43;100.00;100619.87;5587178;31;32435;-66
2022/04/27 13:42:13;;;;;;;15.57;10.25;;;;;;;11.46;100.00;100619.56;5587305;31;32612;-65
2022/04/27 13:45:16;;;;;;;15.30;10.70;;;;;;;11.45;100.00;100618.72;5588217;31;34704;-65
2022/04/27 13:48:19;;;;;;;16.83;10.00;;;;;;;11.57;100.00;100619.22;5587218;31;33339;-66
2022/04/27 13:51:22;;;;;;;15.60;9.77;;;;;;;11.44;100.00;100619.72;5574287;31;33720;-65
2022/04/27 13:54:24;;;;;;;13.43;9.10;;;;;;;11.43;100.00;100617.22;5586708;31;34059;-66
2022/04/27 13:57:28;;;;;;;14.52;9.48;;;;;;;11.41;100.00;100619.25;5586331;31;32440;-67
2022/04/27 14:00:31;;;;;;;14.80;9.23;;;;;;;11.51;100.00;100623.37;5586913;31;34125;-66
2022/04/27 14:03:34;;;;;;;14.73;9.50;;;;;;;11.47;100.00;100624.72;5588114;31;34250;-65
2022/04/27 14:06:36;;;;;;;15.07;10.35;;;;;;;11.56;100.00;100626.38;5586699;31;33349;-66
2022/04/27 14:09:39;;;;;;;14.50;9.73;;;;;;;11.60;100.00;100630.34;5587084;31;33964;-65
2022/04/27 14:19:26;;;;;;;14.80;9.93;;;;;;;11.37;100.00;100631.19;5586508;31;33799;-65
2022/04/27 14:22:29;;;;;;;13.65;9.02;;;;;;;11.34;100.00;100622.56;5589134;31;32424;-66
2022/04/27 14:25:33;;;;;;;13.93;9.30;;;;;;;11.36;100.00;100630.37;5576327;31;32806;-66
2022/04/27 14:28:36;;;;;;;15.00;9.90;;;;;;;11.09;100.00;100618.22;5588943;31;32549;-66
2022/04/27 14:31:39;;;;;;;14.80;9.18;;;;;;;11.01;100.00;100618.22;5589882;31;34443;-66
2022/04/27 14:34:42;;;;;;;14.43;9.00;;;;;;;10.95;100.00;100626.84;5588909;31;33226;-65
2022/04/27 14:37:46;;;;;;;16.55;9.80;;;;;;;10.74;100.00;100622.03;5588553;31;32667;-66
2022/04/27 14:40:49;;;;;;;15.02;10.48;;;;;;;10.75;100.00;100626.31;5589045;31;33258;-66
2022/04/27 14:43:51;;;;;;;14.82;9.77;;;;;;;10.75;100.00;100622.81;5588848;31;32640;-66